sensor_id;sensor_type;location;lat;lon;timestamp;pressure;altitude;pressure_sealevel;temperature;humidity
28630;BME280;15817;42.130;24.762;2023-06-24T00:01:21;99807.53;;;26.05;74.37
28630;BME280;15817;42.130;24.762;2023-06-24T00:03:48;99802.94;;;26.05;74.03
28630;BME280;15817;42.130;24.762;2023-06-24T00:06:14;99806.75;;;26.03;74.11
28630;BME280;15817;42.130;24.762;2023-06-24T00:08:46;99803.34;;;25.99;73.68
28630;BME280;15817;42.130;24.762;2023-06-24T00:11:12;99795.28;;;25.97;73.74
28630;BME280;15817;42.130;24.762;2023-06-24T00:13:44;99789.41;;;25.91;73.29
28630;BME280;15817;42.130;24.762;2023-06-24T00:16:10;99789.63;;;25.88;72.97
28630;BME280;15817;42.130;24.762;2023-06-24T00:18:37;99784.72;;;25.80;73.06
28630;BME280;15817;42.130;24.762;2023-06-24T00:21:06;99789.06;;;25.83;72.91
28630;BME280;15817;42.130;24.762;2023-06-24T00:23:32;99781.22;;;25.78;73.20
28630;BME280;15817;42.130;24.762;2023-06-24T00:26:01;99784.72;;;25.80;72.76
28630;BME280;15817;42.130;24.762;2023-06-24T00:28:27;99776.31;;;25.83;72.74
28630;BME280;15817;42.130;24.762;2023-06-24T00:30:53;99789.16;;;25.69;73.13
28630;BME280;15817;42.130;24.762;2023-06-24T00:33:19;99795.28;;;25.72;73.27
28630;BME280;15817;42.130;24.762;2023-06-24T00:35:47;99779.03;;;25.71;73.48
28630;BME280;15817;42.130;24.762;2023-06-24T00:38:14;99791.34;;;25.76;73.26
28630;BME280;15817;42.130;24.762;2023-06-24T00:40:40;99780.66;;;25.60;73.43
28630;BME280;15817;42.130;24.762;2023-06-24T00:43:06;99788.69;;;25.62;73.41
28630;BME280;15817;42.130;24.762;2023-06-24T00:45:34;99793.38;;;25.60;73.06
28630;BME280;15817;42.130;24.762;2023-06-24T00:47:59;99791.69;;;25.45;73.18
28630;BME280;15817;42.130;24.762;2023-06-24T00:50:25;99786.53;;;25.40;73.75
28630;BME280;15817;42.130;24.762;2023-06-24T00:52:52;99783.50;;;25.45;73.02
28630;BME280;15817;42.130;24.762;2023-06-24T00:55:19;99764.31;;;25.34;73.15
28630;BME280;15817;42.130;24.762;2023-06-24T00:57:49;99783.78;;;25.27;72.87
28630;BME280;15817;42.130;24.762;2023-06-24T01:00:20;99773.75;;;25.28;72.42
28630;BME280;15817;42.130;24.762;2023-06-24T01:02:48;99777.47;;;25.27;72.84
28630;BME280;15817;42.130;24.762;2023-06-24T01:05:14;99768.84;;;25.20;71.18
28630;BME280;15817;42.130;24.762;2023-06-24T01:07:41;99766.31;;;24.90;71.40
28630;BME280;15817;42.130;24.762;2023-06-24T01:10:08;99769.53;;;24.97;71.19
28630;BME280;15817;42.130;24.762;2023-06-24T01:12:35;99776.31;;;24.90;71.03
28630;BME280;15817;42.130;24.762;2023-06-24T01:15:03;99778.75;;;24.95;70.07
28630;BME280;15817;42.130;24.762;2023-06-24T01:17:35;99781.97;;;25.01;70.10
28630;BME280;15817;42.130;24.762;2023-06-24T01:20:04;99778.47;;;24.99;69.12
28630;BME280;15817;42.130;24.762;2023-06-24T01:34:23;99758.72;;;24.96;66.89
28630;BME280;15817;42.130;24.762;2023-06-24T01:37:14;99772.69;;;25.04;66.74
28630;BME280;15817;42.130;24.762;2023-06-24T01:39:57;99769.72;;;24.94;67.02
28630;BME280;15817;42.130;24.762;2023-06-24T01:42:28;99770.09;;;24.88;66.60
28630;BME280;15817;42.130;24.762;2023-06-24T01:44:56;99776.53;;;24.73;66.94
28630;BME280;15817;42.130;24.762;2023-06-24T01:47:25;99781.00;;;24.74;67.47
28630;BME280;15817;42.130;24.762;2023-06-24T01:49:53;99782.56;;;24.78;67.52
28630;BME280;15817;42.130;24.762;2023-06-24T01:52:23;99772.84;;;24.74;67.99
28630;BME280;15817;42.130;24.762;2023-06-24T01:54:51;99784.50;;;24.76;67.57
28630;BME280;15817;42.130;24.762;2023-06-24T01:57:20;99771.00;;;24.74;67.67
28630;BME280;15817;42.130;24.762;2023-06-24T01:59:48;99777.03;;;24.79;67.79
28630;BME280;15817;42.130;24.762;2023-06-24T02:02:15;99783.19;;;24.69;68.23
28630;BME280;15817;42.130;24.762;2023-06-24T02:04:45;99792.00;;;24.72;68.14
28630;BME280;15817;42.130;24.762;2023-06-24T02:07:13;99789.59;;;24.68;68.00
28630;BME280;15817;42.130;24.762;2023-06-24T02:09:40;99796.97;;;24.66;67.94
28630;BME280;15817;42.130;24.762;2023-06-24T02:12:08;99787.56;;;24.57;67.70
28630;BME280;15817;42.130;24.762;2023-06-24T02:14:42;99796.00;;;24.52;68.10
28630;BME280;15817;42.130;24.762;2023-06-24T02:17:11;99796.00;;;24.52;67.98
28630;BME280;15817;42.130;24.762;2023-06-24T02:19:38;99800.69;;;24.50;67.51
28630;BME280;15817;42.130;24.762;2023-06-24T02:22:05;99803.19;;;24.25;68.65
28630;BME280;15817;42.130;24.762;2023-06-24T02:24:36;99805.72;;;24.28;68.78
28630;BME280;15817;42.130;24.762;2023-06-24T02:27:03;99818.13;;;24.18;68.17
28630;BME280;15817;42.130;24.762;2023-06-24T02:29:30;99825.50;;;24.16;68.39
28630;BME280;15817;42.130;24.762;2023-06-24T02:31:57;99824.53;;;24.17;68.30
28630;BME280;15817;42.130;24.762;2023-06-24T02:34:24;99830.59;;;24.22;68.50
28630;BME280;15817;42.130;24.762;2023-06-24T02:36:50;99832.78;;;24.15;68.49
28630;BME280;15817;42.130;24.762;2023-06-24T02:39:16;99836.28;;;24.17;68.51
28630;BME280;15817;42.130;24.762;2023-06-24T02:41:42;99830.16;;;24.14;68.31
28630;BME280;15817;42.130;24.762;2023-06-24T02:44:09;99841.34;;;24.24;68.50
28630;BME280;15817;42.130;24.762;2023-06-24T02:46:36;99833.38;;;24.21;68.32
28630;BME280;15817;42.130;24.762;2023-06-24T02:49:02;99849.63;;;24.22;68.37
28630;BME280;15817;42.130;24.762;2023-06-24T02:51:29;99839.88;;;24.18;68.14
28630;BME280;15817;42.130;24.762;2023-06-24T02:53:56;99845.41;;;24.16;67.92
28630;BME280;15817;42.130;24.762;2023-06-24T02:56:39;99846.66;;;24.11;68.24
28630;BME280;15817;42.130;24.762;2023-06-24T02:59:15;99841.88;;;24.00;68.21
28630;BME280;15817;42.130;24.762;2023-06-24T03:01:40;99852.84;;;23.99;68.37
28630;BME280;15817;42.130;24.762;2023-06-24T03:04:11;99862.47;;;24.04;68.58
28630;BME280;15817;42.130;24.762;2023-06-24T03:06:37;99859.94;;;24.01;68.91
28630;BME280;15817;42.130;24.762;2023-06-24T03:09:05;99843.91;;;23.97;68.40
28630;BME280;15817;42.130;24.762;2023-06-24T03:11:42;99852.06;;;23.97;69.35
28630;BME280;15817;42.130;24.762;2023-06-24T03:14:12;99843.31;;;23.92;68.67
28630;BME280;15817;42.130;24.762;2023-06-24T03:16:41;99844.00;;;23.95;69.48
28630;BME280;15817;42.130;24.762;2023-06-24T03:19:13;99835.84;;;23.95;68.84
28630;BME280;15817;42.130;24.762;2023-06-24T03:21:40;99845.59;;;23.99;68.74
28630;BME280;15817;42.130;24.762;2023-06-24T03:24:10;99847.69;;;23.94;68.33
28630;BME280;15817;42.130;24.762;2023-06-24T03:26:38;99841.19;;;23.97;68.83
28630;BME280;15817;42.130;24.762;2023-06-24T03:29:08;99848.66;;;23.93;68.80
28630;BME280;15817;42.130;24.762;2023-06-24T03:31:34;99857.88;;;23.91;69.10
28630;BME280;15817;42.130;24.762;2023-06-24T03:34:00;99856.03;;;23.91;68.81
28630;BME280;15817;42.130;24.762;2023-06-24T03:36:27;99857.19;;;23.87;68.41
28630;BME280;15817;42.130;24.762;2023-06-24T03:38:54;99853.41;;;23.90;68.70
28630;BME280;15817;42.130;24.762;2023-06-24T03:41:19;99854.66;;;23.84;68.27
28630;BME280;15817;42.130;24.762;2023-06-24T03:43:46;99858.06;;;23.88;68.38
28630;BME280;15817;42.130;24.762;2023-06-24T03:46:12;99850.88;;;23.87;68.48
28630;BME280;15817;42.130;24.762;2023-06-24T03:48:38;99840.75;;;23.74;69.25
28630;BME280;15817;42.130;24.762;2023-06-24T03:51:04;99849.00;;;23.73;69.38
28630;BME280;15817;42.130;24.762;2023-06-24T03:53:31;99858.75;;;23.61;68.83
28630;BME280;15817;42.130;24.762;2023-06-24T03:56:00;99840.63;;;23.62;68.65
28630;BME280;15817;42.130;24.762;2023-06-24T03:58:26;99849.66;;;23.62;68.92
28630;BME280;15817;42.130;24.762;2023-06-24T04:00:53;99845.66;;;23.54;67.91
28630;BME280;15817;42.130;24.762;2023-06-24T04:03:23;99850.44;;;23.48;68.30
28630;BME280;15817;42.130;24.762;2023-06-24T04:05:53;99849.91;;;23.58;68.50
28630;BME280;15817;42.130;24.762;2023-06-24T04:08:21;99860.31;;;23.65;68.40
28630;BME280;15817;42.130;24.762;2023-06-24T04:10:50;99855.94;;;23.47;68.56
28630;BME280;15817;42.130;24.762;2023-06-24T04:13:24;99849.22;;;23.54;69.05
28630;BME280;15817;42.130;24.762;2023-06-24T04:15:49;99849.22;;;23.54;69.24
28630;BME280;15817;42.130;24.762;2023-06-24T04:18:15;99851.31;;;23.65;68.71
28630;BME280;15817;42.130;24.762;2023-06-24T04:20:44;99846.06;;;23.62;68.64
28630;BME280;15817;42.130;24.762;2023-06-24T04:23:09;99857.28;;;23.56;69.18
28630;BME280;15817;42.130;24.762;2023-06-24T04:25:36;99862.59;;;23.57;69.22
28630;BME280;15817;42.130;24.762;2023-06-24T04:28:03;99868.56;;;23.64;69.13
28630;BME280;15817;42.130;24.762;2023-06-24T04:30:30;99867.69;;;23.63;68.74
28630;BME280;15817;42.130;24.762;2023-06-24T04:32:56;99874.59;;;23.69;68.53
28630;BME280;15817;42.130;24.762;2023-06-24T04:35:22;99873.88;;;23.65;68.03
28630;BME280;15817;42.130;24.762;2023-06-24T04:37:48;99874.25;;;23.59;67.71
28630;BME280;15817;42.130;24.762;2023-06-24T04:40:17;99871.53;;;23.59;68.23
28630;BME280;15817;42.130;24.762;2023-06-24T04:42:45;99873.22;;;23.62;67.90
28630;BME280;15817;42.130;24.762;2023-06-24T04:45:11;99886.50;;;23.66;67.83
28630;BME280;15817;42.130;24.762;2023-06-24T04:47:37;99888.16;;;23.69;67.83
28630;BME280;15817;42.130;24.762;2023-06-24T04:50:03;99895.19;;;23.73;67.85
28630;BME280;15817;42.130;24.762;2023-06-24T04:52:29;99901.41;;;23.75;68.40
28630;BME280;15817;42.130;24.762;2023-06-24T04:54:55;99904.47;;;23.69;67.87
28630;BME280;15817;42.130;24.762;2023-06-24T04:57:29;99905.06;;;23.74;68.33
28630;BME280;15817;42.130;24.762;2023-06-24T04:59:56;99903.59;;;23.68;68.19
28630;BME280;15817;42.130;24.762;2023-06-24T05:02:22;99917.41;;;23.79;68.82
28630;BME280;15817;42.130;24.762;2023-06-24T05:04:51;99915.16;;;23.72;68.69
28630;BME280;15817;42.130;24.762;2023-06-24T05:07:18;99909.47;;;23.76;68.72
28630;BME280;15817;42.130;24.762;2023-06-24T05:09:48;99909.53;;;23.75;68.31
28630;BME280;15817;42.130;24.762;2023-06-24T05:12:14;99905.63;;;23.65;67.79
28630;BME280;15817;42.130;24.762;2023-06-24T05:14:40;99910.53;;;23.58;68.67
28630;BME280;15817;42.130;24.762;2023-06-24T05:17:11;99916.75;;;23.60;69.80
28630;BME280;15817;42.130;24.762;2023-06-24T05:19:40;99911.50;;;23.57;69.91
28630;BME280;15817;42.130;24.762;2023-06-24T05:22:06;99913.53;;;23.54;69.95
28630;BME280;15817;42.130;24.762;2023-06-24T05:24:41;99914.28;;;23.56;69.61
28630;BME280;15817;42.130;24.762;2023-06-24T05:27:07;99903.34;;;23.57;71.14
28630;BME280;15817;42.130;24.762;2023-06-24T05:29:35;99916.50;;;23.65;70.81
28630;BME280;15817;42.130;24.762;2023-06-24T05:32:01;99917.25;;;23.67;69.87
28630;BME280;15817;42.130;24.762;2023-06-24T05:34:31;99919.78;;;23.70;68.81
28630;BME280;15817;42.130;24.762;2023-06-24T05:37:03;99905.34;;;23.69;69.03
28630;BME280;15817;42.130;24.762;2023-06-24T05:39:30;99909.53;;;23.75;69.58
28630;BME280;15817;42.130;24.762;2023-06-24T05:41:56;99916.72;;;23.76;70.10
28630;BME280;15817;42.130;24.762;2023-06-24T05:44:22;99927.31;;;23.80;70.00
28630;BME280;15817;42.130;24.762;2023-06-24T05:47:13;99915.56;;;23.80;68.88
28630;BME280;15817;42.130;24.762;2023-06-24T05:49:39;99924.16;;;23.88;69.91
28630;BME280;15817;42.130;24.762;2023-06-24T05:52:05;99917.06;;;23.86;69.70
28630;BME280;15817;42.130;24.762;2023-06-24T05:54:34;99906.84;;;23.89;71.94
28630;BME280;15817;42.130;24.762;2023-06-24T05:57:03;99901.41;;;23.89;72.60
28630;BME280;15817;42.130;24.762;2023-06-24T05:59:35;99906.50;;;23.95;72.66
28630;BME280;15817;42.130;24.762;2023-06-24T06:02:01;99915.25;;;24.00;72.49
28630;BME280;15817;42.130;24.762;2023-06-24T06:04:28;99913.59;;;23.98;72.54
28630;BME280;15817;42.130;24.762;2023-06-24T06:06:53;99920.31;;;24.06;72.19
28630;BME280;15817;42.130;24.762;2023-06-24T06:09:21;99910.50;;;24.04;71.97
28630;BME280;15817;42.130;24.762;2023-06-24T06:11:47;99904.81;;;24.08;72.12
28630;BME280;15817;42.130;24.762;2023-06-24T06:14:29;99918.88;;;24.15;72.36
28630;BME280;15817;42.130;24.762;2023-06-24T06:16:58;99904.59;;;24.11;72.44
28630;BME280;15817;42.130;24.762;2023-06-24T06:19:26;99902.47;;;24.16;76.34
28630;BME280;15817;42.130;24.762;2023-06-24T06:21:55;99903.25;;;24.18;77.32
28630;BME280;15817;42.130;24.762;2023-06-24T06:24:23;99893.88;;;24.24;78.15
28630;BME280;15817;42.130;24.762;2023-06-24T06:26:49;99882.13;;;24.24;78.75
28630;BME280;15817;42.130;24.762;2023-06-24T06:29:17;99892.44;;;24.33;76.90
28630;BME280;15817;42.130;24.762;2023-06-24T06:31:52;99884.38;;;24.31;75.94
28630;BME280;15817;42.130;24.762;2023-06-24T06:34:23;99876.31;;;24.30;76.18
28630;BME280;15817;42.130;24.762;2023-06-24T06:36:52;99876.22;;;24.31;76.84
28630;BME280;15817;42.130;24.762;2023-06-24T06:39:21;99882.25;;;24.36;77.22
28630;BME280;15817;42.130;24.762;2023-06-24T06:42:07;99882.94;;;24.40;77.64
28630;BME280;15817;42.130;24.762;2023-06-24T06:44:53;99873.59;;;24.86;76.38
28630;BME280;15817;42.130;24.762;2023-06-24T06:47:33;99876.50;;;24.83;75.03
28630;BME280;15817;42.130;24.762;2023-06-24T06:49:58;99879.81;;;24.74;76.13
28630;BME280;15817;42.130;24.762;2023-06-24T06:52:26;99862.53;;;24.61;76.78
28630;BME280;15817;42.130;24.762;2023-06-24T06:54:56;99879.44;;;24.66;76.67
28630;BME280;15817;42.130;24.762;2023-06-24T06:57:22;99875.94;;;24.64;77.07
28630;BME280;15817;42.130;24.762;2023-06-24T06:59:50;99874.66;;;24.70;78.02
28630;BME280;15817;42.130;24.762;2023-06-24T07:02:17;99873.03;;;24.67;77.45
28630;BME280;15817;42.130;24.762;2023-06-24T07:04:43;99869.44;;;24.67;76.03
28630;BME280;15817;42.130;24.762;2023-06-24T07:07:09;99866.91;;;24.64;74.88
28630;BME280;15817;42.130;24.762;2023-06-24T07:09:35;99864.00;;;24.67;75.29
28630;BME280;15817;42.130;24.762;2023-06-24T07:12:07;99861.06;;;24.70;74.84
28630;BME280;15817;42.130;24.762;2023-06-24T07:14:33;99858.25;;;24.71;73.68
28630;BME280;15817;42.130;24.762;2023-06-24T07:17:00;99851.66;;;24.75;74.08
28630;BME280;15817;42.130;24.762;2023-06-24T07:19:25;99864.38;;;24.89;72.84
28630;BME280;15817;42.130;24.762;2023-06-24T07:21:52;99874.88;;;24.95;72.96
28630;BME280;15817;42.130;24.762;2023-06-24T07:24:18;99852.63;;;24.88;71.83
28630;BME280;15817;42.130;24.762;2023-06-24T07:26:43;99859.22;;;24.99;71.92
28630;BME280;15817;42.130;24.762;2023-06-24T07:29:09;99857.28;;;25.01;71.66
28630;BME280;15817;42.130;24.762;2023-06-24T07:31:36;99849.69;;;25.06;71.49
28630;BME280;15817;42.130;24.762;2023-06-24T07:34:04;99851.22;;;25.10;71.37
28630;BME280;15817;42.130;24.762;2023-06-24T07:36:31;99870.44;;;25.21;72.04
28630;BME280;15817;42.130;24.762;2023-06-24T07:38:56;99865.47;;;25.27;70.70
28630;BME280;15817;42.130;24.762;2023-06-24T07:41:22;99860.16;;;25.26;69.91
28630;BME280;15817;42.130;24.762;2023-06-24T07:43:48;99845.66;;;25.25;69.75
28630;BME280;15817;42.130;24.762;2023-06-24T07:46:14;99852.94;;;25.25;69.54
28630;BME280;15817;42.130;24.762;2023-06-24T07:48:40;99860.41;;;25.36;70.51
28630;BME280;15817;42.130;24.762;2023-06-24T07:51:06;99858.47;;;25.38;70.19
28630;BME280;15817;42.130;24.762;2023-06-24T07:53:31;99865.03;;;25.48;69.17
28630;BME280;15817;42.130;24.762;2023-06-24T07:55:59;99860.03;;;25.54;69.64
28630;BME280;15817;42.130;24.762;2023-06-24T07:58:25;99867.41;;;25.67;69.99
28630;BME280;15817;42.130;24.762;2023-06-24T08:00:50;99870.38;;;25.76;68.97
28630;BME280;15817;42.130;24.762;2023-06-24T08:03:16;99867.13;;;25.84;68.53
28630;BME280;15817;42.130;24.762;2023-06-24T08:05:42;99866.16;;;25.97;68.00
28630;BME280;15817;42.130;24.762;2023-06-24T08:08:08;99856.16;;;26.11;66.57
28630;BME280;15817;42.130;24.762;2023-06-24T08:10:34;99863.59;;;26.34;66.39
28630;BME280;15817;42.130;24.762;2023-06-24T08:13:00;99860.69;;;26.50;65.87
28630;BME280;15817;42.130;24.762;2023-06-24T08:15:26;99859.88;;;26.73;64.32
28630;BME280;15817;42.130;24.762;2023-06-24T08:17:54;99868.50;;;26.92;62.95
28630;BME280;15817;42.130;24.762;2023-06-24T08:20:21;99860.56;;;27.13;61.98
28630;BME280;15817;42.130;24.762;2023-06-24T08:22:50;99854.75;;;27.30;60.92
28630;BME280;15817;42.130;24.762;2023-06-24T08:25:19;99859.25;;;27.55;61.04
28630;BME280;15817;42.130;24.762;2023-06-24T08:27:54;99861.72;;;27.82;58.99
28630;BME280;15817;42.130;24.762;2023-06-24T08:30:20;99863.66;;;28.04;57.94
28630;BME280;15817;42.130;24.762;2023-06-24T08:32:48;99868.72;;;28.32;58.35
28630;BME280;15817;42.130;24.762;2023-06-24T08:35:14;99863.16;;;28.45;56.04
28630;BME280;15817;42.130;24.762;2023-06-24T08:37:40;99855.19;;;28.64;55.20
28630;BME280;15817;42.130;24.762;2023-06-24T08:40:06;99853.47;;;28.86;55.92
28630;BME280;15817;42.130;24.762;2023-06-24T08:42:32;99852.75;;;29.06;53.44
28630;BME280;15817;42.130;24.762;2023-06-24T08:44:58;99858.31;;;29.15;53.40
28630;BME280;15817;42.130;24.762;2023-06-24T08:47:24;99849.22;;;29.26;53.68
28630;BME280;15817;42.130;24.762;2023-06-24T08:49:59;99864.38;;;29.52;51.88
28630;BME280;15817;42.130;24.762;2023-06-24T08:52:30;99860.81;;;29.73;51.99
28630;BME280;15817;42.130;24.762;2023-06-24T08:55:23;99865.22;;;29.96;50.38
28630;BME280;15817;42.130;24.762;2023-06-24T08:57:57;99855.66;;;30.11;51.15
28630;BME280;15817;42.130;24.762;2023-06-24T09:00:22;99858.78;;;30.28;50.63
28630;BME280;15817;42.130;24.762;2023-06-24T09:02:48;99861.38;;;30.50;50.59
28630;BME280;15817;42.130;24.762;2023-06-24T09:05:14;99856.56;;;30.63;50.46
28630;BME280;15817;42.130;24.762;2023-06-24T09:07:40;99857.31;;;30.65;49.60
28630;BME280;15817;42.130;24.762;2023-06-24T09:10:06;99860.19;;;30.64;50.38
28630;BME280;15817;42.130;24.762;2023-06-24T09:12:33;99855.88;;;30.71;49.96
28630;BME280;15817;42.130;24.762;2023-06-24T09:14:59;99844.34;;;30.77;49.23
28630;BME280;15817;42.130;24.762;2023-06-24T09:17:50;99847.22;;;30.75;48.40
28630;BME280;15817;42.130;24.762;2023-06-24T09:20:19;99847.72;;;30.80;49.42
28630;BME280;15817;42.130;24.762;2023-06-24T09:22:51;99846.19;;;31.07;48.79
28630;BME280;15817;42.130;24.762;2023-06-24T09:25:18;99838.47;;;31.31;48.36
28630;BME280;15817;42.130;24.762;2023-06-24T09:31:29;99828.81;;;31.85;46.39
28630;BME280;15817;42.130;24.762;2023-06-24T09:34:01;99819.41;;;31.97;45.14
28630;BME280;15817;42.130;24.762;2023-06-24T09:36:35;99832.88;;;32.19;45.25
28630;BME280;15817;42.130;24.762;2023-06-24T09:39:11;99827.22;;;32.11;44.38
28630;BME280;15817;42.130;24.762;2023-06-24T09:42:13;99824.47;;;32.30;45.90
28630;BME280;15817;42.130;24.762;2023-06-24T09:44:55;99808.22;;;32.37;45.08
28630;BME280;15817;42.130;24.762;2023-06-24T09:47:25;99800.75;;;32.57;43.41
28630;BME280;15817;42.130;24.762;2023-06-24T09:49:55;99805.44;;;32.84;44.32
28630;BME280;15817;42.130;24.762;2023-06-24T09:52:22;99786.19;;;33.01;43.84
28630;BME280;15817;42.130;24.762;2023-06-24T09:54:54;99795.19;;;33.03;43.64
28630;BME280;15817;42.130;24.762;2023-06-24T09:57:27;99780.97;;;33.26;43.21
28630;BME280;15817;42.130;24.762;2023-06-24T10:00:14;99774.34;;;32.91;42.77
28630;BME280;15817;42.130;24.762;2023-06-24T10:03:03;99774.31;;;33.28;43.05
28630;BME280;15817;42.130;24.762;2023-06-24T10:05:37;99780.44;;;33.40;42.29
28630;BME280;15817;42.130;24.762;2023-06-24T10:08:04;99775.00;;;33.48;42.48
28630;BME280;15817;42.130;24.762;2023-06-24T10:10:39;99770.19;;;33.50;41.94
28630;BME280;15817;42.130;24.762;2023-06-24T10:13:09;99773.13;;;33.66;41.64
28630;BME280;15817;42.130;24.762;2023-06-24T10:15:46;99759.22;;;33.58;41.76
28630;BME280;15817;42.130;24.762;2023-06-24T10:18:43;99765.34;;;33.79;41.58
28630;BME280;15817;42.130;24.762;2023-06-24T10:21:10;99747.81;;;33.89;41.52
28630;BME280;15817;42.130;24.762;2023-06-24T10:26:32;99756.31;;;33.95;40.72
28630;BME280;15817;42.130;24.762;2023-06-24T10:29:10;99747.53;;;34.00;41.10
28630;BME280;15817;42.130;24.762;2023-06-24T10:37:02;99745.00;;;34.58;41.39
28630;BME280;15817;42.130;24.762;2023-06-24T10:42:31;99740.38;;;34.75;39.30
28630;BME280;15817;42.130;24.762;2023-06-24T10:47:39;99727.13;;;34.78;39.49
28630;BME280;15817;42.130;24.762;2023-06-24T10:50:06;99720.84;;;34.68;40.00
28630;BME280;15817;42.130;24.762;2023-06-24T10:52:49;99711.28;;;34.89;40.03
28630;BME280;15817;42.130;24.762;2023-06-24T10:55:19;99719.72;;;34.87;40.40
28630;BME280;15817;42.130;24.762;2023-06-24T10:57:45;99710.44;;;35.04;39.86
28630;BME280;15817;42.130;24.762;2023-06-24T11:00:17;99714.41;;;34.94;40.30
28630;BME280;15817;42.130;24.762;2023-06-24T11:02:43;99695.75;;;35.04;40.40
28630;BME280;15817;42.130;24.762;2023-06-24T11:05:18;99683.28;;;34.92;39.90
28630;BME280;15817;42.130;24.762;2023-06-24T11:07:47;99681.06;;;35.03;40.96
28630;BME280;15817;42.130;24.762;2023-06-24T11:10:18;99677.41;;;34.86;40.18
28630;BME280;15817;42.130;24.762;2023-06-24T11:12:44;99678.63;;;35.00;40.26
28630;BME280;15817;42.130;24.762;2023-06-24T11:15:15;99678.13;;;35.13;41.25
28630;BME280;15817;42.130;24.762;2023-06-24T11:17:43;99673.84;;;35.18;40.55
28630;BME280;15817;42.130;24.762;2023-06-24T11:20:14;99654.44;;;35.10;40.74
28630;BME280;15817;42.130;24.762;2023-06-24T11:22:46;99660.69;;;35.12;40.43
28630;BME280;15817;42.130;24.762;2023-06-24T11:25:20;99640.81;;;35.17;40.12
28630;BME280;15817;42.130;24.762;2023-06-24T11:27:57;99643.63;;;35.25;41.02
28630;BME280;15817;42.130;24.762;2023-06-24T11:30:36;99637.69;;;35.20;40.74
28630;BME280;15817;42.130;24.762;2023-06-24T11:33:08;99631.81;;;35.15;40.24
28630;BME280;15817;42.130;24.762;2023-06-24T11:35:37;99630.63;;;35.17;40.47
28630;BME280;15817;42.130;24.762;2023-06-24T11:38:03;99640.97;;;35.23;39.57
28630;BME280;15817;42.130;24.762;2023-06-24T11:40:33;99632.03;;;35.30;38.39
28630;BME280;15817;42.130;24.762;2023-06-24T11:43:15;99629.06;;;35.23;38.71
28630;BME280;15817;42.130;24.762;2023-06-24T11:46:04;99623.34;;;35.25;39.71
28630;BME280;15817;42.130;24.762;2023-06-24T11:48:42;99626.13;;;35.16;39.33
28630;BME280;15817;42.130;24.762;2023-06-24T11:51:17;99613.31;;;35.23;39.43
28630;BME280;15817;42.130;24.762;2023-06-24T11:53:49;99608.88;;;35.31;39.67
28630;BME280;15817;42.130;24.762;2023-06-24T11:56:34;99616.78;;;35.09;38.99
28630;BME280;15817;42.130;24.762;2023-06-24T11:58:59;99605.03;;;35.15;39.09
28630;BME280;15817;42.130;24.762;2023-06-24T12:01:31;99608.47;;;35.09;39.22
28630;BME280;15817;42.130;24.762;2023-06-24T12:04:00;99604.88;;;35.17;38.21
28630;BME280;15817;42.130;24.762;2023-06-24T12:06:27;99596.59;;;35.33;38.57
28630;BME280;15817;42.130;24.762;2023-06-24T12:08:53;99597.44;;;35.34;38.80
28630;BME280;15817;42.130;24.762;2023-06-24T12:11:28;99591.91;;;35.34;39.23
28630;BME280;15817;42.130;24.762;2023-06-24T12:14:03;99588.81;;;35.29;39.77
28630;BME280;15817;42.130;24.762;2023-06-24T12:16:46;99588.81;;;35.29;39.98
28630;BME280;15817;42.130;24.762;2023-06-24T12:19:12;99593.44;;;35.20;38.92
28630;BME280;15817;42.130;24.762;2023-06-24T12:21:37;99591.56;;;35.12;38.32
28630;BME280;15817;42.130;24.762;2023-06-24T12:24:04;99590.00;;;35.02;38.15
28630;BME280;15817;42.130;24.762;2023-06-24T12:26:31;99577.56;;;34.81;38.30
28630;BME280;15817;42.130;24.762;2023-06-24T12:28:57;99581.34;;;34.89;38.51
28630;BME280;15817;42.130;24.762;2023-06-24T12:31:23;99567.88;;;34.94;39.73
28630;BME280;15817;42.130;24.762;2023-06-24T12:33:51;99554.59;;;35.05;39.96
28630;BME280;15817;42.130;24.762;2023-06-24T12:36:18;99548.16;;;35.13;38.94
28630;BME280;15817;42.130;24.762;2023-06-24T12:38:46;99556.31;;;35.14;38.35
28630;BME280;15817;42.130;24.762;2023-06-24T12:41:19;99543.16;;;35.08;38.16
28630;BME280;15817;42.130;24.762;2023-06-24T12:43:47;99540.41;;;35.16;38.47
28630;BME280;15817;42.130;24.762;2023-06-24T12:46:16;99532.47;;;35.05;37.00
28630;BME280;15817;42.130;24.762;2023-06-24T12:48:48;99520.19;;;35.00;37.39
28630;BME280;15817;42.130;24.762;2023-06-24T12:51:13;99519.47;;;34.98;38.28
28630;BME280;15817;42.130;24.762;2023-06-24T12:53:42;99511.72;;;35.01;38.35
28630;BME280;15817;42.130;24.762;2023-06-24T12:56:08;99513.59;;;35.09;38.50
28630;BME280;15817;42.130;24.762;2023-06-24T12:58:34;99519.47;;;35.14;38.74
28630;BME280;15817;42.130;24.762;2023-06-24T13:01:00;99512.38;;;35.11;38.55
28630;BME280;15817;42.130;24.762;2023-06-24T13:03:29;99499.28;;;35.05;38.66
28630;BME280;15817;42.130;24.762;2023-06-24T13:09:37;99493.53;;;34.74;38.63
28630;BME280;15817;42.130;24.762;2023-06-24T13:12:26;99497.53;;;34.72;39.02
28630;BME280;15817;42.130;24.762;2023-06-24T13:15:22;99499.25;;;34.57;38.82
28630;BME280;15817;42.130;24.762;2023-06-24T13:18:27;99494.06;;;34.54;39.02
28630;BME280;15817;42.130;24.762;2023-06-24T13:21:52;99497.69;;;34.62;39.67
28630;BME280;15817;42.130;24.762;2023-06-24T13:32:06;99487.59;;;34.21;40.91
28630;BME280;15817;42.130;24.762;2023-06-24T13:53:17;99500.47;;;33.28;40.91
28630;BME280;15817;42.130;24.762;2023-06-24T13:56:25;99514.72;;;33.23;41.32
28630;BME280;15817;42.130;24.762;2023-06-24T13:58:54;99512.44;;;33.19;41.48
28630;BME280;15817;42.130;24.762;2023-06-24T14:04:30;99532.03;;;33.16;41.74
28630;BME280;15817;42.130;24.762;2023-06-24T14:07:34;99515.31;;;33.09;41.84